Time;durP1;ratioP1;P1;durP2;ratioP2;P2;SDS_P1;SDS_P2;PMS_P1;PMS_P2;Temp;Humidity;BMP_temperature;BMP_pressure;BME280_temperature;BME280_humidity;BME280_pressure;Samples;Min_cycle;Max_cycle;Signal;HPM_P1;HPM_P2
2022/07/26 00:04:24;;;;;;;1.70;0.30;;;21.90;99.90;;;;;;10244215;28;20371;-61
2022/07/26 00:09:26;;;;;;;2.85;0.32;;;21.70;99.90;;;;;;10287328;28;20041;-62
2022/07/26 00:14:27;;;;;;;2.03;0.45;;;21.60;99.90;;;;;;10277503;28;20100;-61
2022/07/26 00:19:29;;;;;;;2.83;0.40;;;21.50;99.90;;;;;;10302038;28;20046;-61
2022/07/26 00:24:48;;;;;;;4.00;0.50;;;21.40;99.90;;;;;;10292567;28;20043;-62
2022/07/26 00:30:09;;;;;;;2.92;0.57;;;21.30;99.90;;;;;;10289036;28;20043;-62
2022/07/26 00:35:11;;;;;;;1.67;0.35;;;21.30;99.90;;;;;;10292397;28;20045;-62
2022/07/26 00:40:14;;;;;;;3.28;0.50;;;21.30;99.90;;;;;;10286403;28;20054;-62
2022/07/26 00:45:17;;;;;;;3.20;0.47;;;21.20;99.90;;;;;;10282383;28;20081;-62
2022/07/26 00:50:19;;;;;;;4.50;0.47;;;21.20;99.90;;;;;;10288738;28;20042;-62
2022/07/26 00:55:20;;;;;;;3.97;0.52;;;21.10;99.90;;;;;;10286337;28;20054;-62
2022/07/26 01:00:27;;;;;;;4.50;0.50;;;20.90;99.90;;;;;;10298378;28;20113;-62
2022/07/26 01:05:30;;;;;;;2.95;0.40;;;20.80;99.90;;;;;;10293164;28;20039;-61
2022/07/26 01:10:32;;;;;;;3.88;0.50;;;20.70;99.90;;;;;;10304493;28;20050;-61
2022/07/26 01:15:34;;;;;;;3.63;0.40;;;20.60;99.90;;;;;;10282973;28;20329;-62
2022/07/26 01:20:35;;;;;;;3.08;0.50;;;20.50;99.90;;;;;;10298719;28;20132;-61
2022/07/26 01:25:38;;;;;;;5.25;0.55;;;20.50;99.90;;;;;;10289585;28;20076;-62
2022/07/26 01:30:44;;;;;;;1.65;0.40;;;20.60;99.90;;;;;;10270156;28;20133;-62
2022/07/26 01:35:46;;;;;;;6.30;0.57;;;20.50;99.90;;;;;;10291605;28;20060;-62
2022/07/26 01:40:47;;;;;;;2.17;0.50;;;20.50;99.90;;;;;;10266202;28;20492;-61
2022/07/26 01:45:49;;;;;;;2.55;0.40;;;20.50;99.90;;;;;;10296099;28;20053;-61
2022/07/26 01:50:51;;;;;;;6.60;0.52;;;20.50;99.90;;;;;;10302770;28;20050;-62
2022/07/26 01:55:53;;;;;;;1.58;0.40;;;20.60;99.90;;;;;;10291839;28;20042;-62
2022/07/26 02:00:55;;;;;;;10.50;0.30;;;20.60;99.90;;;;;;10292211;28;20054;-63
2022/07/26 02:05:56;;;;;;;4.50;0.20;;;20.70;99.90;;;;;;10307013;28;20067;-62
2022/07/26 02:11:01;;;;;;;2.78;0.28;;;20.70;99.90;;;;;;10284088;28;20648;-62
2022/07/26 02:16:07;;;;;;;3.42;0.30;;;20.80;99.90;;;;;;10272420;28;20059;-62
2022/07/26 02:21:09;;;;;;;2.50;0.30;;;20.80;99.90;;;;;;10290404;28;20078;-62
2022/07/26 02:26:11;;;;;;;5.70;0.32;;;20.90;99.90;;;;;;10294238;28;20054;-62
2022/07/26 02:31:12;;;;;;;2.72;0.60;;;20.90;99.90;;;;;;10292369;28;20050;-63
2022/07/26 02:36:16;;;;;;;1.65;0.20;;;20.80;99.90;;;;;;10294803;28;20105;-62
2022/07/26 02:41:18;;;;;;;2.40;0.25;;;20.80;99.90;;;;;;10308655;28;20046;-62
2022/07/26 02:46:19;;;;;;;1.52;0.20;;;20.70;99.90;;;;;;10294617;28;20054;-62
2022/07/26 02:51:21;;;;;;;1.95;0.30;;;20.70;99.90;;;;;;10301878;28;20078;-62
2022/07/26 02:56:23;;;;;;;3.60;0.20;;;20.60;99.90;;;;;;10299788;28;20062;-62
2022/07/26 03:01:25;;;;;;;1.63;0.40;;;20.50;99.90;;;;;;10274483;28;20128;-62
2022/07/26 03:06:26;;;;;;;1.52;0.20;;;20.40;99.90;;;;;;10294040;28;20051;-62
2022/07/26 03:11:28;;;;;;;1.17;0.20;;;20.30;99.90;;;;;;10271437;28;20050;-62
2022/07/26 03:16:30;;;;;;;5.75;0.20;;;20.20;99.90;;;;;;10265181;28;20046;-62
2022/07/26 03:21:32;;;;;;;5.53;0.20;;;20.10;99.90;;;;;;10260349;28;20054;-62
2022/07/26 03:26:33;;;;;;;0.52;0.20;;;19.90;99.90;;;;;;10268392;28;20047;-61
2022/07/26 03:31:35;;;;;;;2.38;0.20;;;19.80;99.90;;;;;;10273247;28;20066;-61
2022/07/26 03:36:37;;;;;;;1.80;0.20;;;19.70;99.90;;;;;;10256493;28;20053;-61
2022/07/26 03:41:39;;;;;;;2.40;0.38;;;19.60;99.90;;;;;;10264952;28;20105;-61
2022/07/26 03:46:40;;;;;;;0.65;0.20;;;19.60;99.90;;;;;;10256554;28;20054;-63
2022/07/26 03:51:42;;;;;;;7.22;0.50;;;19.50;99.90;;;;;;10260953;28;20697;-63
2022/07/26 03:56:44;;;;;;;3.70;0.20;;;19.50;99.90;;;;;;10272599;28;20082;-62
2022/07/26 04:01:47;;;;;;;1.52;0.10;;;19.40;99.90;;;;;;10264154;28;20063;-63
2022/07/26 04:06:48;;;;;;;1.60;0.20;;;19.30;99.90;;;;;;10276205;28;20444;-63
2022/07/26 04:11:51;;;;;;;1.45;0.20;;;19.30;99.90;;;;;;10294406;28;20438;-63
2022/07/26 04:16:52;;;;;;;2.30;0.30;;;19.20;99.90;;;;;;10290556;28;20058;-63
2022/07/26 04:21:54;;;;;;;2.35;0.40;;;19.20;99.90;;;;;;10285735;28;20054;-63
2022/07/26 04:26:56;;;;;;;3.05;0.22;;;19.10;99.90;;;;;;10276546;28;20062;-63
2022/07/26 04:31:57;;;;;;;2.92;0.20;;;19.10;99.90;;;;;;10287902;28;20055;-63
2022/07/26 04:36:59;;;;;;;4.05;0.20;;;19.20;99.90;;;;;;10283407;28;20065;-63
2022/07/26 04:42:01;;;;;;;2.42;0.20;;;19.20;99.90;;;;;;10298824;28;20046;-62
2022/07/26 04:47:03;;;;;;;3.42;0.40;;;19.20;99.90;;;;;;10295737;28;20501;-62
2022/07/26 04:52:05;;;;;;;1.80;0.30;;;19.40;99.90;;;;;;10294646;28;20549;-63
2022/07/26 04:57:07;;;;;;;2.15;0.30;;;19.40;99.90;;;;;;10287574;28;20054;-64
2022/07/26 05:02:08;;;;;;;0.43;0.25;;;19.40;99.90;;;;;;10280024;28;20470;-64
2022/07/26 05:07:10;;;;;;;0.95;0.28;;;19.50;99.90;;;;;;10297300;28;20108;-64
2022/07/26 05:12:12;;;;;;;0.22;0.20;;;19.50;99.90;;;;;;10290400;28;20061;-64
2022/07/26 05:17:14;;;;;;;3.05;0.32;;;19.60;99.90;;;;;;10307789;28;20049;-63
2022/07/26 05:22:18;;;;;;;2.92;0.30;;;19.70;99.90;;;;;;10294821;28;20058;-64
2022/07/26 05:27:20;;;;;;;6.38;0.30;;;19.80;99.90;;;;;;10285217;28;20046;-64
2022/07/26 05:32:22;;;;;;;0.95;0.17;;;19.70;99.90;;;;;;10292472;28;20046;-64
2022/07/26 05:37:24;;;;;;;0.77;0.20;;;19.80;99.90;;;;;;10267305;28;20069;-64
2022/07/26 05:42:26;;;;;;;3.70;0.20;;;19.90;99.90;;;;;;10300303;28;20485;-64
2022/07/26 05:47:28;;;;;;;1.40;0.20;;;20.10;99.90;;;;;;10303120;28;20081;-64
2022/07/26 05:52:30;;;;;;;0.43;0.17;;;20.30;99.90;;;;;;10304305;28;20043;-63
2022/07/26 05:57:32;;;;;;;0.93;0.20;;;20.30;99.90;;;;;;10296807;28;20065;-64
2022/07/26 06:02:34;;;;;;;5.00;0.75;;;20.30;99.90;;;;;;10280097;28;20042;-64
2022/07/26 06:07:36;;;;;;;3.35;0.20;;;20.40;99.90;;;;;;10272892;28;20062;-64
2022/07/26 06:12:38;;;;;;;0.30;0.20;;;20.20;99.90;;;;;;10249953;28;20052;-64
2022/07/26 06:17:40;;;;;;;1.02;0.20;;;20.30;99.90;;;;;;10248210;28;20057;-65
2022/07/26 06:22:41;;;;;;;2.55;0.60;;;20.20;99.90;;;;;;10254180;28;20054;-64
2022/07/26 06:27:43;;;;;;;2.38;0.30;;;20.30;99.90;;;;;;10256165;28;20043;-65
2022/07/26 06:32:45;;;;;;;0.70;0.20;;;20.40;99.90;;;;;;10255540;28;20058;-64
2022/07/26 06:37:47;;;;;;;2.17;0.20;;;20.50;99.90;;;;;;10237028;28;20062;-65
2022/07/26 06:42:48;;;;;;;1.83;0.30;;;20.60;99.90;;;;;;10250835;28;20051;-64
2022/07/26 06:47:50;;;;;;;1.73;0.20;;;20.70;99.90;;;;;;10251124;28;20050;-65
2022/07/26 06:52:52;;;;;;;2.85;0.30;;;20.70;99.90;;;;;;10266510;28;20051;-65
2022/07/26 06:57:54;;;;;;;0.93;0.40;;;20.50;99.90;;;;;;10261950;28;20061;-63
2022/07/26 07:02:55;;;;;;;1.60;0.25;;;20.90;99.90;;;;;;10254325;28;20059;-64
2022/07/26 07:07:57;;;;;;;2.00;0.20;;;21.10;99.90;;;;;;10260499;28;20061;-64
2022/07/26 07:12:59;;;;;;;2.05;0.30;;;21.10;99.90;;;;;;10284275;28;20055;-65
2022/07/26 07:18:00;;;;;;;3.03;0.30;;;21.00;99.90;;;;;;10301635;28;20969;-64
2022/07/26 07:23:02;;;;;;;5.57;0.20;;;21.20;99.90;;;;;;10290633;28;20054;-64
2022/07/26 07:28:04;;;;;;;2.92;0.32;;;21.20;99.90;;;;;;10284558;28;20058;-64
2022/07/26 07:33:08;;;;;;;1.92;0.20;;;21.30;99.90;;;;;;10300262;28;20054;-64
2022/07/26 07:38:23;;;;;;;2.15;0.28;;;21.40;99.90;;;;;;10300229;28;20486;-64
2022/07/26 07:43:25;;;;;;;0.85;0.25;;;21.60;99.90;;;;;;10290583;28;20050;-64
2022/07/26 07:48:27;;;;;;;7.38;0.30;;;21.80;99.90;;;;;;10281262;28;20444;-64
2022/07/26 07:53:29;;;;;;;3.05;0.43;;;22.20;99.90;;;;;;10295811;28;20061;-64
2022/07/26 07:58:31;;;;;;;1.83;0.20;;;22.30;99.90;;;;;;10298360;28;20061;-64
2022/07/26 08:03:33;;;;;;;3.15;0.30;;;22.50;99.90;;;;;;10289513;28;20054;-64
2022/07/26 08:08:40;;;;;;;2.63;0.20;;;22.70;99.90;;;;;;10290178;28;20051;-64
2022/07/26 08:13:43;;;;;;;4.40;0.20;;;23.00;99.90;;;;;;10280735;28;20046;-64
2022/07/26 08:18:48;;;;;;;1.40;0.30;;;23.30;99.90;;;;;;10293691;28;20073;-64
2022/07/26 08:23:58;;;;;;;1.98;0.30;;;23.50;99.90;;;;;;10298083;28;20053;-64
2022/07/26 08:29:00;;;;;;;0.93;0.20;;;23.70;99.40;;;;;;10301799;28;20054;-63
2022/07/26 08:34:02;;;;;;;0.10;0.10;;;23.40;98.40;;;;;;10303964;28;20043;-64
2022/07/26 08:39:04;;;;;;;5.10;0.28;;;23.20;97.80;;;;;;10301419;28;20050;-64
2022/07/26 08:44:09;;;;;;;1.83;0.20;;;23.00;98.40;;;;;;10308907;28;20077;-64
2022/07/26 08:49:11;;;;;;;1.50;0.20;;;23.30;98.20;;;;;;10311464;28;20051;-63
2022/07/26 08:54:14;;;;;;;1.77;0.20;;;23.60;97.90;;;;;;10282024;28;20069;-64
2022/07/26 08:59:19;;;;;;;0.90;0.20;;;23.30;97.90;;;;;;10296738;28;20062;-64
2022/07/26 09:04:27;;;;;;;1.75;0.73;;;23.40;97.50;;;;;;10297827;28;20046;-64
2022/07/26 09:09:36;;;;;;;1.00;0.17;;;23.50;97.70;;;;;;10281536;28;20133;-64
2022/07/26 09:14:38;;;;;;;0.87;0.10;;;23.20;98.10;;;;;;10278379;28;20045;-63
2022/07/26 09:19:40;;;;;;;0.50;0.28;;;23.40;97.70;;;;;;10293482;28;20108;-64
2022/07/26 09:24:46;;;;;;;13.18;1.38;;;23.80;97.30;;;;;;10279404;28;20046;-65
2022/07/26 09:29:50;;;;;;;3.80;0.20;;;23.80;96.70;;;;;;10285857;28;20050;-65
2022/07/26 09:34:55;;;;;;;11.60;0.52;;;24.10;96.10;;;;;;10291357;28;20082;-64
2022/07/26 09:40:01;;;;;;;0.95;0.20;;;24.40;96.10;;;;;;10270901;28;20073;-63
2022/07/26 09:45:16;;;;;;;0.90;0.10;;;24.00;95.90;;;;;;10291172;28;20057;-63
2022/07/26 09:50:19;;;;;;;4.07;0.25;;;24.00;96.50;;;;;;10269621;28;20054;-63
2022/07/26 09:55:21;;;;;;;1.23;0.10;;;24.30;95.60;;;;;;10301342;28;20553;-63
2022/07/26 10:00:24;;;;;;;1.17;0.20;;;24.60;95.20;;;;;;10289047;28;20046;-63
2022/07/26 10:05:26;;;;;;;1.55;0.20;;;25.00;94.90;;;;;;10276875;28;20129;-63
2022/07/26 10:10:33;;;;;;;2.95;0.20;;;24.80;96.00;;;;;;10294194;28;20153;-63
2022/07/26 10:15:42;;;;;;;0.38;0.10;;;24.30;95.80;;;;;;10286656;28;20401;-63
2022/07/26 10:20:49;;;;;;;0.30;0.10;;;24.20;95.20;;;;;;10281729;28;20051;-63
2022/07/26 10:25:51;;;;;;;0.30;0.10;;;24.10;95.60;;;;;;10292148;28;20053;-63
2022/07/26 10:31:19;;;;;;;1.15;0.40;;;23.80;96.10;;;;;;10304101;28;20081;-63
2022/07/26 10:36:33;;;;;;;0.20;0.20;;;23.70;96.70;;;;;;10291945;28;20057;-63
2022/07/26 10:41:38;;;;;;;1.75;0.28;;;23.70;96.50;;;;;;10289343;28;20051;-63
2022/07/26 10:47:03;;;;;;;1.00;0.15;;;24.20;96.60;;;;;;10285020;28;20042;-63
2022/07/26 10:52:22;;;;;;;0.63;0.20;;;25.20;95.30;;;;;;10288042;28;20047;-63
2022/07/26 10:57:38;;;;;;;0.50;0.30;;;24.70;93.80;;;;;;10306688;28;20042;-63
2022/07/26 11:02:42;;;;;;;4.38;1.60;;;24.50;94.30;;;;;;10298289;28;20073;-62
2022/07/26 11:07:50;;;;;;;3.85;0.20;;;25.50;93.80;;;;;;10292519;28;20113;-63
2022/07/26 11:13:06;;;;;;;0.55;0.20;;;26.10;93.60;;;;;;10297394;28;20042;-62
2022/07/26 11:18:08;;;;;;;;;;;25.70;93.30;;;;;;10291026;28;20054;-63
2022/07/26 11:23:26;;;;;;;1.25;0.30;;;25.70;93.40;;;;;;10286867;28;19973;-62
2022/07/26 11:28:28;;;;;;;0.90;0.20;;;25.50;93.30;;;;;;10292560;28;20626;-62
2022/07/26 11:33:35;;;;;;;2.42;0.30;;;25.50;93.20;;;;;;10302255;28;20496;-62
2022/07/26 11:38:52;;;;;;;0.35;0.20;;;25.80;93.50;;;;;;10298973;28;20057;-64
2022/07/26 11:43:55;;;;;;;1.50;0.25;;;25.50;94.00;;;;;;10303182;28;20490;-63
2022/07/26 11:49:05;;;;;;;2.70;0.20;;;25.30;94.50;;;;;;10280916;28;20074;-63
2022/07/26 11:54:06;;;;;;;1.15;0.30;;;25.40;94.50;;;;;;10285612;28;20051;-63
2022/07/26 11:59:12;;;;;;;2.22;0.20;;;25.30;94.50;;;;;;10290780;28;20042;-63
2022/07/26 12:04:23;;;;;;;1.03;0.20;;;25.90;94.20;;;;;;10275686;28;20046;-63
2022/07/26 12:09:46;;;;;;;1.30;0.30;;;25.60;94.20;;;;;;10277719;28;20065;-63
2022/07/26 12:15:02;;;;;;;0.20;0.20;;;25.80;93.50;;;;;;10284276;28;20050;-63
2022/07/26 12:20:14;;;;;;;2.78;0.20;;;25.70;92.40;;;;;;10284003;28;20046;-63
2022/07/26 12:25:25;;;;;;;3.17;0.32;;;26.10;92.90;;;;;;10295375;28;20096;-64
2022/07/26 12:30:34;;;;;;;0.90;0.20;;;26.10;92.80;;;;;;10286519;28;20046;-64
2022/07/26 12:35:36;;;;;;;1.95;0.20;;;26.60;91.50;;;;;;10280841;28;20509;-64
2022/07/26 12:40:41;;;;;;;0.73;0.30;;;27.10;90.30;;;;;;10279472;28;20065;-64
2022/07/26 12:45:43;;;;;;;2.58;0.13;;;27.20;89.80;;;;;;10296384;28;20163;-64
2022/07/26 12:50:45;;;;;;;1.75;0.30;;;27.00;89.50;;;;;;10300018;28;20512;-63
2022/07/26 12:55:46;;;;;;;2.28;0.28;;;26.60;89.90;;;;;;10293196;28;20055;-63
2022/07/26 13:00:48;;;;;;;0.30;0.20;;;26.80;89.80;;;;;;10283688;28;20049;-63
2022/07/26 13:05:50;;;;;;;1.60;0.22;;;27.30;89.20;;;;;;10288050;28;20069;-63
2022/07/26 13:10:52;;;;;;;1.45;0.20;;;26.60;90.00;;;;;;10292807;28;20057;-63
2022/07/26 13:16:00;;;;;;;1.40;0.20;;;26.50;90.20;;;;;;10288502;28;20375;-63
2022/07/26 13:21:02;;;;;;;0.50;0.20;;;26.60;88.90;;;;;;10283237;28;20055;-63
2022/07/26 13:26:04;;;;;;;0.75;0.20;;;26.50;87.40;;;;;;10300341;28;20516;-63
2022/07/26 13:31:11;;;;;;;1.40;0.30;;;25.80;88.50;;;;;;10284589;28;20054;-62
2022/07/26 13:36:13;;;;;;;0.30;0.20;;;26.10;89.50;;;;;;10284085;28;20046;-62
2022/07/26 13:41:14;;;;;;;1.15;0.20;;;26.30;88.30;;;;;;10277131;28;20051;-62
2022/07/26 13:46:16;;;;;;;0.45;0.20;;;26.80;88.60;;;;;;10274637;28;20498;-62
2022/07/26 13:51:18;;;;;;;1.45;0.52;;;26.90;88.10;;;;;;10278620;28;20059;-63
2022/07/26 13:56:20;;;;;;;0.43;0.20;;;26.80;87.30;;;;;;10279157;28;20042;-63
2022/07/26 14:01:22;;;;;;;0.68;0.25;;;27.30;88.90;;;;;;10291820;28;20046;-63
2022/07/26 14:06:43;;;;;;;2.15;0.52;;;27.30;86.70;;;;;;10315019;28;20058;-63
2022/07/26 14:11:45;;;;;;;0.50;0.20;;;27.10;85.40;;;;;;10292932;28;20050;-63
2022/07/26 14:16:47;;;;;;;3.03;0.30;;;27.30;85.50;;;;;;10289124;28;20117;-63
2022/07/26 14:21:50;;;;;;;2.15;0.65;;;27.60;83.70;;;;;;10284393;28;20053;-63
2022/07/26 14:27:01;;;;;;;1.30;0.20;;;27.30;82.40;;;;;;10287881;28;20122;-63
2022/07/26 14:32:04;;;;;;;0.90;0.30;;;27.50;84.00;;;;;;10283922;28;20054;-63
2022/07/26 14:37:06;;;;;;;4.75;0.30;;;27.30;83.90;;;;;;10281100;28;20045;-62
2022/07/26 14:42:09;;;;;;;0.60;0.40;;;27.20;86.20;;;;;;10296487;28;20053;-63
2022/07/26 14:47:11;;;;;;;0.73;0.30;;;27.30;87.10;;;;;;10312301;28;20058;-63
2022/07/26 14:52:14;;;;;;;2.35;0.32;;;27.30;86.20;;;;;;10272287;28;20043;-64
2022/07/26 14:57:15;;;;;;;0.55;0.30;;;27.50;85.50;;;;;;10286459;28;20062;-63
2022/07/26 15:02:17;;;;;;;1.90;0.20;;;27.60;84.40;;;;;;10289327;28;20046;-63
2022/07/26 15:07:19;;;;;;;0.98;0.30;;;27.60;83.20;;;;;;10272891;28;20061;-63
2022/07/26 15:12:21;;;;;;;0.40;0.30;;;27.70;84.00;;;;;;10286345;28;20043;-63
2022/07/26 15:17:23;;;;;;;0.52;0.30;;;28.30;83.90;;;;;;10293734;28;20055;-63
2022/07/26 15:22:25;;;;;;;1.20;0.20;;;29.00;80.10;;;;;;10291230;28;20066;-63
2022/07/26 15:27:27;;;;;;;0.85;0.30;;;28.90;79.10;;;;;;10283191;28;20046;-62
2022/07/26 15:32:28;;;;;;;2.00;0.82;;;28.90;79.40;;;;;;10292833;28;20505;-62
2022/07/26 15:37:30;;;;;;;1.75;0.30;;;29.50;78.10;;;;;;10291293;28;20049;-62
2022/07/26 15:42:32;;;;;;;0.52;0.30;;;29.80;77.10;;;;;;10284642;28;20106;-62
2022/07/26 15:47:34;;;;;;;3.33;0.30;;;29.80;76.20;;;;;;10302625;28;20105;-62
2022/07/26 15:52:55;;;;;;;1.10;0.40;;;29.10;77.40;;;;;;10296822;28;20054;-62
2022/07/26 15:57:57;;;;;;;0.88;0.30;;;29.50;76.00;;;;;;10284919;28;20055;-62
2022/07/26 16:03:00;;;;;;;1.30;0.25;;;29.50;75.20;;;;;;10276403;28;20078;-62
2022/07/26 16:08:01;;;;;;;1.73;0.30;;;29.70;75.20;;;;;;10300562;28;20062;-64
2022/07/26 16:13:03;;;;;;;0.55;0.30;;;29.50;75.20;;;;;;10304439;28;20449;-61
2022/07/26 16:18:05;;;;;;;0.55;0.30;;;28.50;75.10;;;;;;10277298;28;20057;-63
2022/07/26 16:23:08;;;;;;;0.80;0.30;;;28.90;75.80;;;;;;10285238;28;20646;-63
2022/07/26 16:28:10;;;;;;;5.22;0.30;;;28.20;76.40;;;;;;10297767;28;20058;-64
2022/07/26 16:33:11;;;;;;;0.45;0.30;;;27.70;77.00;;;;;;10307400;28;20410;-62
2022/07/26 16:38:13;;;;;;;1.00;0.35;;;27.30;77.00;;;;;;10305510;28;20042;-62
2022/07/26 16:43:14;;;;;;;1.00;0.38;;;27.60;76.70;;;;;;10281448;28;20097;-62
2022/07/26 16:48:16;;;;;;;2.88;0.35;;;28.00;76.80;;;;;;10302812;28;20046;-62
2022/07/26 16:53:18;;;;;;;2.13;0.30;;;28.20;77.20;;;;;;10306530;28;20042;-62
2022/07/26 16:58:21;;;;;;;2.45;1.02;;;27.40;81.50;;;;;;10277343;28;20046;-62
2022/07/26 17:03:23;;;;;;;10.73;0.73;;;26.80;84.00;;;;;;10285254;28;20054;-63
2022/07/26 17:08:24;;;;;;;5.50;0.60;;;26.50;85.10;;;;;;10280172;28;20089;-63
2022/07/26 17:13:26;;;;;;;2.88;0.60;;;26.20;86.20;;;;;;10272432;28;20512;-63
2022/07/26 17:18:28;;;;;;;0.82;0.57;;;26.10;86.70;;;;;;10268936;28;20050;-62
2022/07/26 17:23:30;;;;;;;3.63;0.50;;;26.30;86.60;;;;;;10273468;28;20054;-62
2022/07/26 17:28:32;;;;;;;2.05;0.50;;;26.80;86.30;;;;;;10272455;28;20066;-62
2022/07/26 17:33:34;;;;;;;1.95;0.60;;;26.90;84.80;;;;;;10274714;28;20042;-62
2022/07/26 17:38:35;;;;;;;2.45;0.65;;;26.90;84.90;;;;;;10285652;28;20050;-63
2022/07/26 17:43:38;;;;;;;1.55;0.70;;;26.40;85.50;;;;;;10265560;28;20534;-63
2022/07/26 17:48:42;;;;;;;3.22;0.60;;;26.20;86.00;;;;;;10259675;28;20042;-63
2022/07/26 17:53:45;;;;;;;0.68;0.50;;;25.80;86.70;;;;;;10279528;28;20146;-63
2022/07/26 17:58:53;;;;;;;3.13;0.60;;;25.60;87.20;;;;;;10278484;28;20059;-63
2022/07/26 18:03:55;;;;;;;2.15;0.52;;;25.10;88.30;;;;;;10255824;28;20054;-64
2022/07/26 18:08:56;;;;;;;2.35;0.50;;;24.70;87.80;;;;;;10268158;28;20054;-63
2022/07/26 18:13:58;;;;;;;0.60;0.50;;;24.50;88.20;;;;;;10298466;28;20046;-63
2022/07/26 18:19:00;;;;;;;3.90;0.40;;;24.30;88.70;;;;;;10295363;28;20051;-62
2022/07/26 18:24:02;;;;;;;1.58;0.45;;;24.10;89.10;;;;;;10295041;28;20058;-63
2022/07/26 18:29:17;;;;;;;0.70;0.40;;;24.10;89.20;;;;;;10288675;28;20043;-62
2022/07/26 18:34:19;;;;;;;0.50;0.30;;;23.90;88.90;;;;;;10290478;28;20058;-63
2022/07/26 18:39:21;;;;;;;5.07;0.40;;;23.70;89.00;;;;;;10301142;28;20057;-63
2022/07/26 18:44:22;;;;;;;1.13;0.40;;;23.60;88.90;;;;;;10276595;28;20498;-63
2022/07/26 18:49:24;;;;;;;0.52;0.40;;;23.60;89.10;;;;;;10304004;28;20501;-62
2022/07/26 18:54:32;;;;;;;0.85;0.30;;;23.50;89.20;;;;;;10292131;28;20054;-62
2022/07/26 18:59:33;;;;;;;3.53;0.38;;;23.50;89.40;;;;;;10284629;28;20074;-62
2022/07/26 19:04:37;;;;;;;1.42;0.40;;;23.50;90.00;;;;;;10302818;28;20055;-62
2022/07/26 19:09:39;;;;;;;0.50;0.38;;;23.50;90.20;;;;;;10301532;28;20065;-62
2022/07/26 19:14:41;;;;;;;0.60;0.40;;;23.50;90.40;;;;;;10298273;28;20063;-61
2022/07/26 19:19:42;;;;;;;0.68;0.40;;;23.50;90.40;;;;;;10292671;28;20051;-62
2022/07/26 19:24:44;;;;;;;3.22;0.57;;;23.40;90.80;;;;;;10290329;28;20054;-60
2022/07/26 19:29:47;;;;;;;4.28;0.60;;;23.50;90.80;;;;;;10276961;28;20494;-59
2022/07/26 19:34:49;;;;;;;4.47;0.35;;;23.40;90.80;;;;;;10293262;28;20051;-60
2022/07/26 19:39:51;;;;;;;2.33;0.40;;;23.30;91.00;;;;;;10306231;28;20058;-59
2022/07/26 19:44:53;;;;;;;3.85;0.40;;;23.20;91.10;;;;;;10301827;28;20057;-60
2022/07/26 19:49:55;;;;;;;2.70;0.93;;;23.20;91.50;;;;;;10280423;28;20046;-59
2022/07/26 19:54:57;;;;;;;2.15;0.52;;;23.20;91.50;;;;;;10289856;28;20058;-59
2022/07/26 20:00:01;;;;;;;0.85;0.45;;;23.10;91.80;;;;;;10274901;28;20116;-60
2022/07/26 20:05:03;;;;;;;1.05;0.50;;;23.00;92.10;;;;;;10296259;28;20117;-59
2022/07/26 20:10:06;;;;;;;1.17;0.40;;;22.80;92.60;;;;;;10285818;28;20051;-60
2022/07/26 20:15:09;;;;;;;1.38;0.43;;;22.80;92.90;;;;;;10286082;28;20046;-60
2022/07/26 20:20:12;;;;;;;1.98;0.52;;;22.80;93.30;;;;;;10285793;28;20113;-60
2022/07/26 20:25:14;;;;;;;0.77;0.50;;;22.70;93.70;;;;;;10300539;28;20397;-60
2022/07/26 20:30:22;;;;;;;2.60;0.60;;;22.60;94.40;;;;;;10291820;28;20054;-60
2022/07/26 20:35:23;;;;;;;1.50;0.63;;;22.50;94.80;;;;;;10301997;28;20390;-60
2022/07/26 20:40:27;;;;;;;3.92;0.47;;;22.40;94.90;;;;;;10287306;28;20042;-60
2022/07/26 20:45:29;;;;;;;1.05;0.70;;;22.40;95.30;;;;;;10320746;28;20050;-59
2022/07/26 20:50:30;;;;;;;5.07;0.55;;;22.40;95.60;;;;;;10290788;28;20043;-60
2022/07/26 20:55:32;;;;;;;1.50;0.68;;;22.30;95.90;;;;;;10282901;28;20486;-60
2022/07/26 21:00:34;;;;;;;0.88;0.70;;;22.20;96.10;;;;;;10296866;28;20490;-60
2022/07/26 21:05:36;;;;;;;1.23;0.77;;;22.10;96.30;;;;;;10290296;28;20128;-61
2022/07/26 21:10:38;;;;;;;1.17;0.47;;;22.00;96.80;;;;;;10254024;28;20606;-62
2022/07/26 21:15:41;;;;;;;1.90;0.50;;;22.00;97.20;;;;;;10260192;28;20053;-60
2022/07/26 21:20:42;;;;;;;1.35;0.47;;;21.90;97.50;;;;;;10245542;28;20043;-59
2022/07/26 21:25:44;;;;;;;0.85;0.30;;;21.90;97.70;;;;;;10253478;28;20126;-59
2022/07/26 21:30:46;;;;;;;1.88;0.40;;;21.70;97.80;;;;;;10251780;28;20054;-59
2022/07/26 21:35:47;;;;;;;0.70;0.43;;;21.70;98.10;;;;;;10260876;28;20074;-59
2022/07/26 21:40:50;;;;;;;0.40;0.40;;;21.70;98.40;;;;;;10257690;28;20054;-59
2022/07/26 21:45:51;;;;;;;0.52;0.52;;;21.60;98.60;;;;;;10253575;28;20054;-59
2022/07/26 21:50:53;;;;;;;0.30;0.25;;;21.60;98.80;;;;;;10251246;28;20061;-59
2022/07/26 21:55:59;;;;;;;1.02;0.20;;;21.40;98.70;;;;;;10259250;28;20047;-60
2022/07/26 22:01:15;;;;;;;0.38;0.30;;;21.40;98.90;;;;;;10262964;28;20054;-60
2022/07/26 22:06:17;;;;;;;2.20;0.30;;;21.20;99.00;;;;;;10246995;28;20046;-59
2022/07/26 22:11:19;;;;;;;1.27;0.40;;;21.20;99.30;;;;;;10285446;28;20323;-59
2022/07/26 22:16:20;;;;;;;4.20;0.32;;;21.20;99.50;;;;;;10297690;28;20049;-59
2022/07/26 22:21:22;;;;;;;0.13;0.13;;;21.10;99.90;;;;;;10287742;28;20514;-59
2022/07/26 22:26:29;;;;;;;0.40;0.20;;;20.90;99.90;;;;;;10305166;28;20050;-59
2022/07/26 22:31:31;;;;;;;0.65;0.20;;;21.00;99.90;;;;;;10296164;28;20106;-59
2022/07/26 22:36:33;;;;;;;0.90;0.17;;;20.90;99.90;;;;;;10301754;28;20547;-59
2022/07/26 22:41:35;;;;;;;1.15;0.10;;;20.80;99.90;;;;;;10289638;28;20440;-59
2022/07/26 22:46:56;;;;;;;0.10;0.10;;;20.70;99.90;;;;;;10293364;28;20601;-60
2022/07/26 22:51:58;;;;;;;0.30;0.10;;;20.60;99.90;;;;;;10290484;28;20062;-59
2022/07/26 22:57:00;;;;;;;0.10;0.10;;;20.60;99.90;;;;;;10281964;28;20058;-58
2022/07/26 23:02:03;;;;;;;0.17;0.10;;;20.50;99.90;;;;;;10281476;28;20046;-59
2022/07/26 23:07:04;;;;;;;1.17;0.20;;;20.50;99.90;;;;;;10296268;28;20046;-59
2022/07/26 23:12:06;;;;;;;0.30;0.20;;;20.40;99.90;;;;;;10284358;28;20043;-59
2022/07/26 23:17:08;;;;;;;0.20;0.10;;;20.40;99.90;;;;;;10279524;28;20109;-59
2022/07/26 23:22:10;;;;;;;0.80;0.10;;;20.20;99.90;;;;;;10299304;28;20051;-60
2022/07/26 23:27:12;;;;;;;0.20;0.10;;;20.20;99.90;;;;;;10289825;28;20050;-59
2022/07/26 23:32:20;;;;;;;0.38;0.10;;;20.10;99.90;;;;;;10283270;28;20070;-59
2022/07/26 23:37:22;;;;;;;0.10;0.10;;;20.10;99.90;;;;;;10282182;28;20081;-59
2022/07/26 23:42:23;;;;;;;0.30;0.10;;;20.10;99.90;;;;;;10293298;28;20046;-59
2022/07/26 23:47:25;;;;;;;0.65;0.10;;;20.00;99.90;;;;;;10312026;28;20058;-59
2022/07/26 23:52:27;;;;;;;0.65;0.20;;;20.00;99.90;;;;;;10297324;28;20047;-60
2022/07/26 23:57:28;;;;;;;0.63;0.10;;;20.00;99.90;;;;;;10292836;28;20058;-61
